sensor_id;sensor_type;location;lat;lon;timestamp;pressure;altitude;pressure_sealevel;temperature
41654;BMP280;30790;52.030;7.110;2022-07-22T00:01:23;101315.69;;;24.11
41654;BMP280;30790;52.030;7.110;2022-07-22T00:03:48;101305.97;;;24.03
41654;BMP280;30790;52.030;7.110;2022-07-22T00:06:14;101316.94;;;24.03
41654;BMP280;30790;52.030;7.110;2022-07-22T00:08:39;101334.69;;;24.18
41654;BMP280;30790;52.030;7.110;2022-07-22T00:11:04;101325.22;;;24.09
41654;BMP280;30790;52.030;7.110;2022-07-22T00:13:30;101339.09;;;24.19
41654;BMP280;30790;52.030;7.110;2022-07-22T00:15:56;101330.53;;;24.15
41654;BMP280;30790;52.030;7.110;2022-07-22T00:18:21;101323.91;;;24.11
41654;BMP280;30790;52.030;7.110;2022-07-22T00:20:47;101335.19;;;24.15
41654;BMP280;30790;52.030;7.110;2022-07-22T00:23:12;101337.69;;;24.16
41654;BMP280;30790;52.030;7.110;2022-07-22T00:25:37;101336.84;;;24.16
41654;BMP280;30790;52.030;7.110;2022-07-22T00:28:03;101338.25;;;24.18
41654;BMP280;30790;52.030;7.110;2022-07-22T00:30:28;101329.41;;;24.11
41654;BMP280;30790;52.030;7.110;2022-07-22T00:32:53;101340.44;;;24.16
41654;BMP280;30790;52.030;7.110;2022-07-22T00:35:19;101344.81;;;24.17
41654;BMP280;30790;52.030;7.110;2022-07-22T00:37:44;101337.38;;;24.13
41654;BMP280;30790;52.030;7.110;2022-07-22T00:40:10;101332.72;;;24.13
41654;BMP280;30790;52.030;7.110;2022-07-22T00:42:35;101334.38;;;24.14
41654;BMP280;30790;52.030;7.110;2022-07-22T00:45:01;101331.88;;;24.13
41654;BMP280;30790;52.030;7.110;2022-07-22T00:47:26;101338.50;;;24.17
41654;BMP280;30790;52.030;7.110;2022-07-22T00:49:51;101325.56;;;24.12
41654;BMP280;30790;52.030;7.110;2022-07-22T00:52:19;101334.94;;;24.16
41654;BMP280;30790;52.030;7.110;2022-07-22T00:54:44;101318.75;;;24.15
41654;BMP280;30790;52.030;7.110;2022-07-22T00:57:09;101312.69;;;24.13
41654;BMP280;30790;52.030;7.110;2022-07-22T00:59:35;101307.13;;;24.08
41654;BMP280;30790;52.030;7.110;2022-07-22T01:02:00;101319.44;;;24.05
41654;BMP280;30790;52.030;7.110;2022-07-22T01:04:25;101329.16;;;24.13
41654;BMP280;30790;52.030;7.110;2022-07-22T01:06:51;101324.97;;;24.10
41654;BMP280;30790;52.030;7.110;2022-07-22T01:09:17;101324.22;;;24.15
41654;BMP280;30790;52.030;7.110;2022-07-22T01:11:42;101296.03;;;23.97
41654;BMP280;30790;52.030;7.110;2022-07-22T01:14:07;101337.69;;;24.16
41654;BMP280;30790;52.030;7.110;2022-07-22T01:16:33;101326.06;;;24.09
41654;BMP280;30790;52.030;7.110;2022-07-22T01:18:58;101329.41;;;24.11
41654;BMP280;30790;52.030;7.110;2022-07-22T01:21:23;101334.88;;;24.11
41654;BMP280;30790;52.030;7.110;2022-07-22T01:23:49;101341.50;;;24.15
41654;BMP280;30790;52.030;7.110;2022-07-22T01:26:15;101341.50;;;24.15
41654;BMP280;30790;52.030;7.110;2022-07-22T01:28:41;101347.00;;;24.15
41654;BMP280;30790;52.030;7.110;2022-07-22T01:31:06;101336.53;;;24.12
41654;BMP280;30790;52.030;7.110;2022-07-22T01:33:32;101332.97;;;24.12
41654;BMP280;30790;52.030;7.110;2022-07-22T01:35:58;101329.41;;;24.11
41654;BMP280;30790;52.030;7.110;2022-07-22T01:38:23;101336.28;;;24.14
41654;BMP280;30790;52.030;7.110;2022-07-22T01:40:48;101326.06;;;24.09
41654;BMP280;30790;52.030;7.110;2022-07-22T01:43:15;101339.03;;;24.14
41654;BMP280;30790;52.030;7.110;2022-07-22T01:45:44;101329.63;;;24.10
41654;BMP280;30790;52.030;7.110;2022-07-22T01:48:09;101332.72;;;24.13
41654;BMP280;30790;52.030;7.110;2022-07-22T01:50:35;101320.00;;;24.07
41654;BMP280;30790;52.030;7.110;2022-07-22T01:53:00;101331.88;;;24.13
41654;BMP280;30790;52.030;7.110;2022-07-22T01:55:26;101333.53;;;24.14
41654;BMP280;30790;52.030;7.110;2022-07-22T01:57:51;101332.72;;;24.13
41654;BMP280;30790;52.030;7.110;2022-07-22T02:00:20;101333.53;;;24.14
41654;BMP280;30790;52.030;7.110;2022-07-22T02:02:45;101333.81;;;24.12
41654;BMP280;30790;52.030;7.110;2022-07-22T02:05:11;101322.75;;;24.07
41654;BMP280;30790;52.030;7.110;2022-07-22T02:07:36;101330.22;;;24.12
41654;BMP280;30790;52.030;7.110;2022-07-22T02:10:03;101329.41;;;24.11
41654;BMP280;30790;52.030;7.110;2022-07-22T02:12:28;101333.81;;;24.12
41654;BMP280;30790;52.030;7.110;2022-07-22T02:14:54;101324.16;;;24.10
41654;BMP280;30790;52.030;7.110;2022-07-22T02:17:19;101314.47;;;24.02
41654;BMP280;30790;52.030;7.110;2022-07-22T02:19:45;101329.41;;;24.11
41654;BMP280;30790;52.030;7.110;2022-07-22T02:22:10;101329.88;;;24.08
41654;BMP280;30790;52.030;7.110;2022-07-22T02:24:35;101334.53;;;24.08
41654;BMP280;30790;52.030;7.110;2022-07-22T02:27:01;101340.13;;;24.13
41654;BMP280;30790;52.030;7.110;2022-07-22T02:29:27;101332.63;;;24.08
41654;BMP280;30790;52.030;7.110;2022-07-22T02:31:52;101326.66;;;24.11
41654;BMP280;30790;52.030;7.110;2022-07-22T02:34:17;101322.19;;;24.05
41654;BMP280;30790;52.030;7.110;2022-07-22T02:36:43;101311.09;;;23.95
41654;BMP280;30790;52.030;7.110;2022-07-22T02:39:08;101324.34;;;24.03
41654;BMP280;30790;52.030;7.110;2022-07-22T02:41:33;101335.38;;;24.08
41654;BMP280;30790;52.030;7.110;2022-07-22T02:43:59;101347.53;;;24.12
41654;BMP280;30790;52.030;7.110;2022-07-22T02:46:25;101335.13;;;24.10
41654;BMP280;30790;52.030;7.110;2022-07-22T02:48:51;101338.69;;;24.10
41654;BMP280;30790;52.030;7.110;2022-07-22T02:51:16;101337.03;;;24.09
41654;BMP280;30790;52.030;7.110;2022-07-22T02:53:42;101339.78;;;24.09
41654;BMP280;30790;52.030;7.110;2022-07-22T02:56:07;101340.84;;;24.08
41654;BMP280;30790;52.030;7.110;2022-07-22T02:58:33;101331.22;;;24.05
41654;BMP280;30790;52.030;7.110;2022-07-22T03:00:58;101339.78;;;24.09
41654;BMP280;30790;52.030;7.110;2022-07-22T03:03:24;101330.41;;;24.05
41654;BMP280;30790;52.030;7.110;2022-07-22T03:05:49;101342.50;;;24.09
41654;BMP280;30790;52.030;7.110;2022-07-22T03:08:15;101333.72;;;24.07
41654;BMP280;30790;52.030;7.110;2022-07-22T03:10:40;101331.22;;;24.05
41654;BMP280;30790;52.030;7.110;2022-07-22T03:13:05;101339.78;;;24.09
41654;BMP280;30790;52.030;7.110;2022-07-22T03:15:30;101329.00;;;24.02
41654;BMP280;30790;52.030;7.110;2022-07-22T03:17:56;101341.63;;;24.03
41654;BMP280;30790;52.030;7.110;2022-07-22T03:20:21;101336.97;;;24.04
41654;BMP280;30790;52.030;7.110;2022-07-22T03:22:46;101341.06;;;24.01
41654;BMP280;30790;52.030;7.110;2022-07-22T03:25:12;101349.34;;;24.07
41654;BMP280;30790;52.030;7.110;2022-07-22T03:27:37;101354.56;;;24.08
41654;BMP280;30790;52.030;7.110;2022-07-22T03:30:04;101344.38;;;24.03
41654;BMP280;30790;52.030;7.110;2022-07-22T03:32:30;101346.84;;;24.05
41654;BMP280;30790;52.030;7.110;2022-07-22T03:34:55;101334.75;;;24.01
41654;BMP280;30790;52.030;7.110;2022-07-22T03:37:20;101318.19;;;23.91
41654;BMP280;30790;52.030;7.110;2022-07-22T03:39:46;101334.19;;;23.99
41654;BMP280;30790;52.030;7.110;2022-07-22T03:42:11;101350.16;;;24.07
41654;BMP280;30790;52.030;7.110;2022-07-22T03:44:36;101342.47;;;24.04
41654;BMP280;30790;52.030;7.110;2022-07-22T03:47:02;101336.97;;;24.04
41654;BMP280;30790;52.030;7.110;2022-07-22T03:49:27;101337.22;;;24.02
41654;BMP280;30790;52.030;7.110;2022-07-22T03:51:54;101332.78;;;23.96
41654;BMP280;30790;52.030;7.110;2022-07-22T03:54:20;101337.22;;;24.02
41654;BMP280;30790;52.030;7.110;2022-07-22T03:56:45;101346.84;;;24.05
41654;BMP280;30790;52.030;7.110;2022-07-22T03:59:10;101344.38;;;24.03
41654;BMP280;30790;52.030;7.110;2022-07-22T04:01:36;101333.34;;;23.98
41654;BMP280;30790;52.030;7.110;2022-07-22T04:04:01;101330.59;;;23.98
41654;BMP280;30790;52.030;7.110;2022-07-22T04:06:26;101341.88;;;24.02
41654;BMP280;30790;52.030;7.110;2022-07-22T04:08:52;101341.06;;;24.01
41654;BMP280;30790;52.030;7.110;2022-07-22T04:11:17;101342.19;;;24.05
41654;BMP280;30790;52.030;7.110;2022-07-22T04:13:42;101350.94;;;24.02
41654;BMP280;30790;52.030;7.110;2022-07-22T04:16:07;101334.69;;;23.96
41654;BMP280;30790;52.030;7.110;2022-07-22T04:18:33;101344.38;;;24.03
41654;BMP280;30790;52.030;7.110;2022-07-22T04:20:59;101350.69;;;24.04
41654;BMP280;30790;52.030;7.110;2022-07-22T04:23:24;101341.31;;;24.00
41654;BMP280;30790;52.030;7.110;2022-07-22T04:25:49;101325.06;;;23.93
41654;BMP280;30790;52.030;7.110;2022-07-22T04:28:15;101351.19;;;24.01
41654;BMP280;30790;52.030;7.110;2022-07-22T04:30:40;101322.84;;;23.90
41654;BMP280;30790;52.030;7.110;2022-07-22T04:33:05;101340.50;;;23.99
41654;BMP280;30790;52.030;7.110;2022-07-22T04:35:31;101348.19;;;24.02
41654;BMP280;30790;52.030;7.110;2022-07-22T04:37:57;101338.56;;;24.00
41654;BMP280;30790;52.030;7.110;2022-07-22T04:40:22;101349.03;;;24.03
41654;BMP280;30790;52.030;7.110;2022-07-22T04:42:47;101341.06;;;24.01
41654;BMP280;30790;52.030;7.110;2022-07-22T04:45:12;101341.88;;;24.02
41654;BMP280;30790;52.030;7.110;2022-07-22T04:47:38;101337.69;;;23.94
41654;BMP280;30790;52.030;7.110;2022-07-22T04:50:03;101340.94;;;23.91
41654;BMP280;30790;52.030;7.110;2022-07-22T04:52:29;101335.00;;;23.78
41654;BMP280;30790;52.030;7.110;2022-07-22T04:54:54;101341.56;;;23.77
41654;BMP280;30790;52.030;7.110;2022-07-22T04:57:19;101353.34;;;23.77
41654;BMP280;30790;52.030;7.110;2022-07-22T04:59:45;101340.84;;;23.64
41654;BMP280;30790;52.030;7.110;2022-07-22T05:02:10;101355.13;;;23.66
41654;BMP280;30790;52.030;7.110;2022-07-22T05:04:35;101362.28;;;23.67
41654;BMP280;30790;52.030;7.110;2022-07-22T05:07:01;101363.09;;;23.68
41654;BMP280;30790;52.030;7.110;2022-07-22T05:09:28;101361.69;;;23.65
41654;BMP280;30790;52.030;7.110;2022-07-22T05:11:53;101360.28;;;23.63
41654;BMP280;30790;52.030;7.110;2022-07-22T05:14:18;101358.97;;;23.65
41654;BMP280;30790;52.030;7.110;2022-07-22T05:16:45;101356.47;;;23.64
41654;BMP280;30790;52.030;7.110;2022-07-22T05:19:10;101353.28;;;23.55
41654;BMP280;30790;52.030;7.110;2022-07-22T05:21:35;101354.88;;;23.51
41654;BMP280;30790;52.030;7.110;2022-07-22T05:24:00;101351.91;;;23.36
41654;BMP280;30790;52.030;7.110;2022-07-22T05:26:26;101349.75;;;23.21
41654;BMP280;30790;52.030;7.110;2022-07-22T05:28:55;101341.22;;;23.18
41654;BMP280;30790;52.030;7.110;2022-07-22T05:31:20;101340.56;;;23.10
41654;BMP280;30790;52.030;7.110;2022-07-22T05:33:46;101343.22;;;23.05
41654;BMP280;30790;52.030;7.110;2022-07-22T05:36:11;101350.94;;;23.08
41654;BMP280;30790;52.030;7.110;2022-07-22T05:38:37;101347.75;;;23.00
41654;BMP280;30790;52.030;7.110;2022-07-22T05:41:02;101350.03;;;23.03
41654;BMP280;30790;52.030;7.110;2022-07-22T05:43:28;101350.50;;;23.17
41654;BMP280;30790;52.030;7.110;2022-07-22T05:45:54;101346.84;;;23.28
41654;BMP280;30790;52.030;7.110;2022-07-22T05:48:19;101357.59;;;23.29
41654;BMP280;30790;52.030;7.110;2022-07-22T05:50:44;101361.16;;;23.30
41654;BMP280;30790;52.030;7.110;2022-07-22T05:53:10;101367.47;;;23.30
41654;BMP280;30790;52.030;7.110;2022-07-22T05:55:35;101368.19;;;23.26
41654;BMP280;30790;52.030;7.110;2022-07-22T05:58:01;101358.88;;;23.27
41654;BMP280;30790;52.030;7.110;2022-07-22T06:00:26;101360.47;;;23.23
41654;BMP280;30790;52.030;7.110;2022-07-22T06:02:51;101356.50;;;23.13
41654;BMP280;30790;52.030;7.110;2022-07-22T06:05:17;101356.00;;;23.17
41654;BMP280;30790;52.030;7.110;2022-07-22T06:07:42;101347.69;;;23.11
41654;BMP280;30790;52.030;7.110;2022-07-22T06:10:07;101351.03;;;23.13
41654;BMP280;30790;52.030;7.110;2022-07-22T06:12:33;101360.81;;;23.09
41654;BMP280;30790;52.030;7.110;2022-07-22T06:14:58;101350.94;;;23.08
41654;BMP280;30790;52.030;7.110;2022-07-22T06:17:23;101353.09;;;23.06
41654;BMP280;30790;52.030;7.110;2022-07-22T06:19:49;101361.13;;;22.96
41654;BMP280;30790;52.030;7.110;2022-07-22T06:22:14;101358.47;;;22.85
41654;BMP280;30790;52.030;7.110;2022-07-22T06:24:42;101359.31;;;22.85
41654;BMP280;30790;52.030;7.110;2022-07-22T06:27:08;101358.59;;;22.78
41654;BMP280;30790;52.030;7.110;2022-07-22T06:29:33;101356.22;;;22.81
41654;BMP280;30790;52.030;7.110;2022-07-22T06:31:58;101358.59;;;22.78
41654;BMP280;30790;52.030;7.110;2022-07-22T06:34:24;101368.34;;;22.86
41654;BMP280;30790;52.030;7.110;2022-07-22T06:36:49;101357.06;;;22.82
41654;BMP280;30790;52.030;7.110;2022-07-22T06:39:14;101350.66;;;22.76
41654;BMP280;30790;52.030;7.110;2022-07-22T06:41:40;101351.34;;;22.72
41654;BMP280;30790;52.030;7.110;2022-07-22T06:44:05;101358.72;;;22.83
41654;BMP280;30790;52.030;7.110;2022-07-22T06:46:30;101343.47;;;22.87
41654;BMP280;30790;52.030;7.110;2022-07-22T06:48:56;101350.41;;;22.95
41654;BMP280;30790;52.030;7.110;2022-07-22T06:51:21;101346.78;;;22.89
41654;BMP280;30790;52.030;7.110;2022-07-22T06:53:46;101352.34;;;22.94
41654;BMP280;30790;52.030;7.110;2022-07-22T06:56:12;101349.91;;;22.98
41654;BMP280;30790;52.030;7.110;2022-07-22T06:58:37;101354.31;;;22.99
41654;BMP280;30790;52.030;7.110;2022-07-22T07:01:02;101358.50;;;23.01
41654;BMP280;30790;52.030;7.110;2022-07-22T07:03:28;101342.13;;;22.90
41654;BMP280;30790;52.030;7.110;2022-07-22T07:05:53;101342.78;;;22.97
41654;BMP280;30790;52.030;7.110;2022-07-22T07:08:18;101359.31;;;23.02
41654;BMP280;30790;52.030;7.110;2022-07-22T07:10:44;101332.59;;;22.92
41654;BMP280;30790;52.030;7.110;2022-07-22T07:13:09;101351.25;;;22.95
41654;BMP280;30790;52.030;7.110;2022-07-22T07:15:34;101346.53;;;22.91
41654;BMP280;30790;52.030;7.110;2022-07-22T07:18:00;101368.25;;;22.97
41654;BMP280;30790;52.030;7.110;2022-07-22T07:20:25;101359.78;;;22.99
41654;BMP280;30790;52.030;7.110;2022-07-22T07:22:50;101354.00;;;22.95
41654;BMP280;30790;52.030;7.110;2022-07-22T07:25:16;101349.50;;;22.89
41654;BMP280;30790;52.030;7.110;2022-07-22T07:27:41;101355.91;;;22.95
41654;BMP280;30790;52.030;7.110;2022-07-22T07:30:07;101354.41;;;22.87
41654;BMP280;30790;52.030;7.110;2022-07-22T07:32:37;101353.00;;;22.73
41654;BMP280;30790;52.030;7.110;2022-07-22T07:35:04;101352.09;;;22.67
41654;BMP280;30790;52.030;7.110;2022-07-22T07:37:30;101354.50;;;22.64
41654;BMP280;30790;52.030;7.110;2022-07-22T07:39:55;101351.19;;;22.62
41654;BMP280;30790;52.030;7.110;2022-07-22T07:42:21;101340.00;;;22.63
41654;BMP280;30790;52.030;7.110;2022-07-22T07:44:46;101348.88;;;22.70
41654;BMP280;30790;52.030;7.110;2022-07-22T07:47:11;101353.50;;;22.70
41654;BMP280;30790;52.030;7.110;2022-07-22T07:49:42;101341.41;;;22.66
41654;BMP280;30790;52.030;7.110;2022-07-22T07:52:08;101340.31;;;22.67
41654;BMP280;30790;52.030;7.110;2022-07-22T07:54:33;101345.78;;;22.67
41654;BMP280;30790;52.030;7.110;2022-07-22T07:56:58;101354.25;;;22.65
41654;BMP280;30790;52.030;7.110;2022-07-22T07:59:24;101349.38;;;22.67
41654;BMP280;30790;52.030;7.110;2022-07-22T08:01:49;101354.00;;;22.67
41654;BMP280;30790;52.030;7.110;2022-07-22T08:04:14;101355.56;;;22.63
41654;BMP280;30790;52.030;7.110;2022-07-22T08:06:39;101348.44;;;22.62
41654;BMP280;30790;52.030;7.110;2022-07-22T08:09:05;101344.38;;;22.64
41654;BMP280;30790;52.030;7.110;2022-07-22T08:11:30;101348.63;;;22.72
41654;BMP280;30790;52.030;7.110;2022-07-22T08:13:55;101338.66;;;22.66
41654;BMP280;30790;52.030;7.110;2022-07-22T08:16:21;101357.31;;;22.69
41654;BMP280;30790;52.030;7.110;2022-07-22T08:18:46;101343.50;;;22.75
41654;BMP280;30790;52.030;7.110;2022-07-22T08:21:11;101342.56;;;22.70
41654;BMP280;30790;52.030;7.110;2022-07-22T08:23:37;101334.19;;;22.60
41654;BMP280;30790;52.030;7.110;2022-07-22T08:26:02;101342.06;;;22.56
41654;BMP280;30790;52.030;7.110;2022-07-22T08:28:27;101343.38;;;22.54
41654;BMP280;30790;52.030;7.110;2022-07-22T08:30:53;101352.16;;;22.56
41654;BMP280;30790;52.030;7.110;2022-07-22T08:33:19;101349.19;;;22.57
41654;BMP280;30790;52.030;7.110;2022-07-22T08:35:45;101352.91;;;22.51
41654;BMP280;30790;52.030;7.110;2022-07-22T08:38:10;101343.38;;;22.54
41654;BMP280;30790;52.030;7.110;2022-07-22T08:40:36;101354.25;;;22.65
41654;BMP280;30790;52.030;7.110;2022-07-22T08:43:01;101342.97;;;22.62
41654;BMP280;30790;52.030;7.110;2022-07-22T08:45:29;101352.25;;;22.61
41654;BMP280;30790;52.030;7.110;2022-07-22T08:47:55;101349.22;;;22.74
41654;BMP280;30790;52.030;7.110;2022-07-22T08:50:20;101351.97;;;22.74
41654;BMP280;30790;52.030;7.110;2022-07-22T08:52:46;101351.47;;;22.77
41654;BMP280;30790;52.030;7.110;2022-07-22T08:55:11;101343.16;;;22.72
41654;BMP280;30790;52.030;7.110;2022-07-22T08:57:37;101355.03;;;22.77
41654;BMP280;30790;52.030;7.110;2022-07-22T09:00:10;101363.63;;;22.81
41654;BMP280;30790;52.030;7.110;2022-07-22T09:02:38;101349.94;;;22.81
41654;BMP280;30790;52.030;7.110;2022-07-22T09:05:06;101367.50;;;22.85
41654;BMP280;30790;52.030;7.110;2022-07-22T09:07:37;101365.28;;;22.82
41654;BMP280;30790;52.030;7.110;2022-07-22T09:10:06;101362.28;;;22.84
41654;BMP280;30790;52.030;7.110;2022-07-22T09:12:32;101356.31;;;22.87
41654;BMP280;30790;52.030;7.110;2022-07-22T09:15:00;101354.91;;;22.84
41654;BMP280;30790;52.030;7.110;2022-07-22T09:17:34;101347.03;;;22.88
41654;BMP280;30790;52.030;7.110;2022-07-22T09:20:02;101360.97;;;22.86
41654;BMP280;30790;52.030;7.110;2022-07-22T09:25:22;101348.59;;;22.84
41654;BMP280;30790;52.030;7.110;2022-07-22T09:27:50;101355.97;;;22.83
41654;BMP280;30790;52.030;7.110;2022-07-22T09:30:23;101355.16;;;22.83
41654;BMP280;30790;52.030;7.110;2022-07-22T09:32:51;101352.66;;;22.81
41654;BMP280;30790;52.030;7.110;2022-07-22T09:35:17;101359.31;;;22.85
41654;BMP280;30790;52.030;7.110;2022-07-22T09:40:23;101351.41;;;22.89
41654;BMP280;30790;52.030;7.110;2022-07-22T09:42:57;101359.88;;;22.87
41654;BMP280;30790;52.030;7.110;2022-07-22T09:45:25;101350.50;;;22.83
41654;BMP280;30790;52.030;7.110;2022-07-22T09:47:51;101357.06;;;22.82
41654;BMP280;30790;52.030;7.110;2022-07-22T09:50:31;101356.44;;;22.80
41654;BMP280;30790;52.030;7.110;2022-07-22T09:52:58;101356.44;;;22.80
41654;BMP280;30790;52.030;7.110;2022-07-22T09:55:25;101348.72;;;22.77
41654;BMP280;30790;52.030;7.110;2022-07-22T09:57:52;101356.69;;;22.78
41654;BMP280;30790;52.030;7.110;2022-07-22T10:00:21;101355.75;;;22.73
41654;BMP280;30790;52.030;7.110;2022-07-22T10:02:56;101355.75;;;22.73
41654;BMP280;30790;52.030;7.110;2022-07-22T10:05:24;101357.63;;;22.84
41654;BMP280;30790;52.030;7.110;2022-07-22T10:07:51;101359.97;;;22.92
41654;BMP280;30790;52.030;7.110;2022-07-22T10:10:21;101351.16;;;22.90
41654;BMP280;30790;52.030;7.110;2022-07-22T10:12:51;101362.28;;;23.00
41654;BMP280;30790;52.030;7.110;2022-07-22T10:15:18;101356.22;;;22.98
41654;BMP280;30790;52.030;7.110;2022-07-22T10:17:51;101355.75;;;23.01
41654;BMP280;30790;52.030;7.110;2022-07-22T10:20:19;101354.06;;;23.00
41654;BMP280;30790;52.030;7.110;2022-07-22T10:23:08;101350.63;;;23.05
41654;BMP280;30790;52.030;7.110;2022-07-22T10:28:35;101354.84;;;23.12
41654;BMP280;30790;52.030;7.110;2022-07-22T10:31:27;101343.38;;;23.16
41654;BMP280;30790;52.030;7.110;2022-07-22T10:33:54;101347.19;;;23.15
41654;BMP280;30790;52.030;7.110;2022-07-22T10:36:39;101348.78;;;23.10
41654;BMP280;30790;52.030;7.110;2022-07-22T10:39:13;101354.50;;;23.09
41654;BMP280;30790;52.030;7.110;2022-07-22T10:41:41;101340.75;;;23.04
41654;BMP280;30790;52.030;7.110;2022-07-22T10:44:08;101349.53;;;23.06
41654;BMP280;30790;52.030;7.110;2022-07-22T10:46:53;101340.75;;;23.04
41654;BMP280;30790;52.030;7.110;2022-07-22T10:49:23;101337.75;;;23.05
41654;BMP280;30790;52.030;7.110;2022-07-22T10:57:37;101340.81;;;23.09
41654;BMP280;30790;52.030;7.110;2022-07-22T11:00:03;101332.94;;;23.12
41654;BMP280;30790;52.030;7.110;2022-07-22T11:02:28;101339.22;;;23.13
41654;BMP280;30790;52.030;7.110;2022-07-22T11:04:54;101331.28;;;23.11
41654;BMP280;30790;52.030;7.110;2022-07-22T11:07:20;101330.25;;;23.18
41654;BMP280;30790;52.030;7.110;2022-07-22T11:09:45;101323.13;;;23.17
41654;BMP280;30790;52.030;7.110;2022-07-22T11:12:14;101312.75;;;23.19
41654;BMP280;30790;52.030;7.110;2022-07-22T11:14:39;101315.25;;;23.20
41654;BMP280;30790;52.030;7.110;2022-07-22T11:17:07;101330.09;;;23.24
41654;BMP280;30790;52.030;7.110;2022-07-22T11:19:34;101324.94;;;23.28
41654;BMP280;30790;52.030;7.110;2022-07-22T11:22:04;101320.28;;;23.28
41654;BMP280;30790;52.030;7.110;2022-07-22T11:24:30;101322.69;;;23.25
41654;BMP280;30790;52.030;7.110;2022-07-22T11:26:57;101334.59;;;23.30
41654;BMP280;30790;52.030;7.110;2022-07-22T11:29:24;101334.59;;;23.30
41654;BMP280;30790;52.030;7.110;2022-07-22T11:31:51;101329.34;;;23.29
41654;BMP280;30790;52.030;7.110;2022-07-22T11:34:16;101316.25;;;23.31
41654;BMP280;30790;52.030;7.110;2022-07-22T11:36:45;101299.88;;;23.19
41654;BMP280;30790;52.030;7.110;2022-07-22T11:39:13;101314.59;;;23.30
41654;BMP280;30790;52.030;7.110;2022-07-22T11:41:39;101317.78;;;23.27
41654;BMP280;30790;52.030;7.110;2022-07-22T11:44:05;101325.59;;;23.35
41654;BMP280;30790;52.030;7.110;2022-07-22T11:46:39;101317.13;;;23.36
41654;BMP280;30790;52.030;7.110;2022-07-22T11:49:05;101319.88;;;23.36
41654;BMP280;30790;52.030;7.110;2022-07-22T11:51:32;101322.38;;;23.38
41654;BMP280;30790;52.030;7.110;2022-07-22T11:53:58;101313.31;;;23.37
41654;BMP280;30790;52.030;7.110;2022-07-22T11:56:24;101315.81;;;23.39
41654;BMP280;30790;52.030;7.110;2022-07-22T11:58:51;101305.84;;;23.33
41654;BMP280;30790;52.030;7.110;2022-07-22T12:01:22;101307.19;;;23.30
41654;BMP280;30790;52.030;7.110;2022-07-22T12:03:54;101308.50;;;23.28
41654;BMP280;30790;52.030;7.110;2022-07-22T12:06:22;101298.03;;;23.25
41654;BMP280;30790;52.030;7.110;2022-07-22T12:08:50;101288.69;;;23.21
41654;BMP280;30790;52.030;7.110;2022-07-22T12:11:17;101292.56;;;23.25
41654;BMP280;30790;52.030;7.110;2022-07-22T12:13:47;101288.94;;;23.19
41654;BMP280;30790;52.030;7.110;2022-07-22T12:16:24;101282.63;;;23.19
41654;BMP280;30790;52.030;7.110;2022-07-22T12:19:08;101282.38;;;23.20
41654;BMP280;30790;52.030;7.110;2022-07-22T12:21:54;101282.88;;;23.17
41654;BMP280;30790;52.030;7.110;2022-07-22T12:24:29;101290.66;;;23.25
41654;BMP280;30790;52.030;7.110;2022-07-22T12:26:57;101285.44;;;23.24
41654;BMP280;30790;52.030;7.110;2022-07-22T12:29:26;101281.09;;;23.28
41654;BMP280;30790;52.030;7.110;2022-07-22T12:31:58;101290.91;;;23.24
41654;BMP280;30790;52.030;7.110;2022-07-22T12:34:40;101287.09;;;23.25
41654;BMP280;30790;52.030;7.110;2022-07-22T12:39:39;101286.59;;;23.28
41654;BMP280;30790;52.030;7.110;2022-07-22T12:42:16;101286.44;;;23.34
41654;BMP280;30790;52.030;7.110;2022-07-22T12:44:50;101269.41;;;23.32
41654;BMP280;30790;52.030;7.110;2022-07-22T12:47:16;101266.25;;;23.24
41654;BMP280;30790;52.030;7.110;2022-07-22T12:49:42;101276.97;;;23.25
41654;BMP280;30790;52.030;7.110;2022-07-22T12:52:12;101277.47;;;23.22
41654;BMP280;30790;52.030;7.110;2022-07-22T12:54:40;101265.69;;;23.22
41654;BMP280;30790;52.030;7.110;2022-07-22T12:57:07;101264.03;;;23.21
41654;BMP280;30790;52.030;7.110;2022-07-22T12:59:33;101267.84;;;23.20
41654;BMP280;30790;52.030;7.110;2022-07-22T13:01:59;101271.47;;;23.25
41654;BMP280;30790;52.030;7.110;2022-07-22T13:04:24;101257.41;;;23.17
41654;BMP280;30790;52.030;7.110;2022-07-22T13:06:50;101264.66;;;23.28
41654;BMP280;30790;52.030;7.110;2022-07-22T13:09:16;101258.63;;;23.26
41654;BMP280;30790;52.030;7.110;2022-07-22T13:11:41;101252.56;;;23.24
41654;BMP280;30790;52.030;7.110;2022-07-22T13:14:10;101248.59;;;23.15
41654;BMP280;30790;52.030;7.110;2022-07-22T13:16:35;101225.47;;;23.05
41654;BMP280;30790;52.030;7.110;2022-07-22T13:19:01;101230.97;;;23.05
41654;BMP280;30790;52.030;7.110;2022-07-22T13:21:26;101231.03;;;23.10
41654;BMP280;30790;52.030;7.110;2022-07-22T13:23:52;101238.47;;;23.15
41654;BMP280;30790;52.030;7.110;2022-07-22T13:26:17;101229.38;;;23.09
41654;BMP280;30790;52.030;7.110;2022-07-22T13:28:42;101245.44;;;23.23
41654;BMP280;30790;52.030;7.110;2022-07-22T13:31:08;101251.72;;;23.23
41654;BMP280;30790;52.030;7.110;2022-07-22T13:33:34;101226.69;;;23.15
41654;BMP280;30790;52.030;7.110;2022-07-22T13:35:59;101218.09;;;23.06
41654;BMP280;30790;52.030;7.110;2022-07-22T13:38:25;101211.78;;;23.05
41654;BMP280;30790;52.030;7.110;2022-07-22T13:40:50;101216.75;;;23.08
41654;BMP280;30790;52.030;7.110;2022-07-22T13:43:20;101214.09;;;23.13
41654;BMP280;30790;52.030;7.110;2022-07-22T13:45:46;101227.41;;;23.27
41654;BMP280;30790;52.030;7.110;2022-07-22T13:48:12;101229.50;;;23.20
41654;BMP280;30790;52.030;7.110;2022-07-22T13:50:37;101202.25;;;23.08
41654;BMP280;30790;52.030;7.110;2022-07-22T13:53:02;101217.09;;;23.12
41654;BMP280;30790;52.030;7.110;2022-07-22T13:55:28;101206.88;;;23.07
41654;BMP280;30790;52.030;7.110;2022-07-22T13:57:53;101209.38;;;23.09
41654;BMP280;30790;52.030;7.110;2022-07-22T14:00:19;101232.88;;;23.27
41654;BMP280;30790;52.030;7.110;2022-07-22T14:02:45;101230.41;;;23.25
41654;BMP280;30790;52.030;7.110;2022-07-22T14:05:11;101202.00;;;23.09
41654;BMP280;30790;52.030;7.110;2022-07-22T14:07:36;101217.53;;;23.26
41654;BMP280;30790;52.030;7.110;2022-07-22T14:10:02;101198.22;;;23.16